sensor_id;sensor_type;location;lat;lon;timestamp;P1;durP1;ratioP1;P2;durP2;ratioP2
12248;SDS011;6187;50.778;6.142;2022-11-20T00:01:27;7.60;;;7.10;;
12248;SDS011;6187;50.778;6.142;2022-11-20T00:03:56;7.47;;;6.97;;
12248;SDS011;6187;50.778;6.142;2022-11-20T00:06:25;7.90;;;7.30;;
12248;SDS011;6187;50.778;6.142;2022-11-20T00:08:56;8.50;;;7.87;;
12248;SDS011;6187;50.778;6.142;2022-11-20T00:11:26;8.90;;;8.27;;
12248;SDS011;6187;50.778;6.142;2022-11-20T00:13:56;7.67;;;7.17;;
12248;SDS011;6187;50.778;6.142;2022-11-20T00:16:26;7.47;;;6.97;;
12248;SDS011;6187;50.778;6.142;2022-11-20T00:18:55;7.50;;;7.00;;
12248;SDS011;6187;50.778;6.142;2022-11-20T00:21:24;9.00;;;8.40;;
12248;SDS011;6187;50.778;6.142;2022-11-20T00:23:54;8.73;;;8.13;;
12248;SDS011;6187;50.778;6.142;2022-11-20T00:26:25;7.77;;;7.20;;
12248;SDS011;6187;50.778;6.142;2022-11-20T00:28:54;8.27;;;7.67;;
12248;SDS011;6187;50.778;6.142;2022-11-20T00:31:23;8.67;;;8.07;;
12248;SDS011;6187;50.778;6.142;2022-11-20T00:33:52;8.53;;;7.93;;
12248;SDS011;6187;50.778;6.142;2022-11-20T00:36:21;8.83;;;8.13;;
12248;SDS011;6187;50.778;6.142;2022-11-20T00:38:50;8.97;;;8.27;;
12248;SDS011;6187;50.778;6.142;2022-11-20T00:41:19;9.27;;;8.57;;
12248;SDS011;6187;50.778;6.142;2022-11-20T00:43:50;9.60;;;8.90;;
12248;SDS011;6187;50.778;6.142;2022-11-20T00:46:20;9.00;;;8.30;;
12248;SDS011;6187;50.778;6.142;2022-11-20T00:48:49;8.13;;;7.60;;
12248;SDS011;6187;50.778;6.142;2022-11-20T00:51:18;10.13;;;9.43;;
12248;SDS011;6187;50.778;6.142;2022-11-20T00:53:47;8.73;;;8.10;;
12248;SDS011;6187;50.778;6.142;2022-11-20T00:56:16;9.30;;;8.60;;
12248;SDS011;6187;50.778;6.142;2022-11-20T00:58:46;8.80;;;8.20;;
12248;SDS011;6187;50.778;6.142;2022-11-20T01:01:17;9.93;;;9.17;;
12248;SDS011;6187;50.778;6.142;2022-11-20T01:03:47;8.60;;;8.00;;
12248;SDS011;6187;50.778;6.142;2022-11-20T01:06:18;8.57;;;7.97;;
12248;SDS011;6187;50.778;6.142;2022-11-20T01:08:48;8.80;;;8.20;;
12248;SDS011;6187;50.778;6.142;2022-11-20T01:11:17;8.90;;;8.30;;
12248;SDS011;6187;50.778;6.142;2022-11-20T01:13:46;9.50;;;8.80;;
12248;SDS011;6187;50.778;6.142;2022-11-20T01:16:18;9.17;;;8.57;;
12248;SDS011;6187;50.778;6.142;2022-11-20T01:18:48;7.93;;;7.37;;
12248;SDS011;6187;50.778;6.142;2022-11-20T01:21:17;9.00;;;8.30;;
12248;SDS011;6187;50.778;6.142;2022-11-20T01:23:47;7.93;;;7.37;;
12248;SDS011;6187;50.778;6.142;2022-11-20T01:26:16;7.77;;;7.17;;
12248;SDS011;6187;50.778;6.142;2022-11-20T01:28:46;7.53;;;7.03;;
12248;SDS011;6187;50.778;6.142;2022-11-20T01:31:15;7.83;;;7.30;;
12248;SDS011;6187;50.778;6.142;2022-11-20T01:33:46;7.50;;;7.00;;
12248;SDS011;6187;50.778;6.142;2022-11-20T01:36:15;8.00;;;7.40;;
12248;SDS011;6187;50.778;6.142;2022-11-20T01:38:44;7.00;;;6.50;;
12248;SDS011;6187;50.778;6.142;2022-11-20T01:41:14;7.20;;;6.70;;
12248;SDS011;6187;50.778;6.142;2022-11-20T01:43:57;7.10;;;6.60;;
12248;SDS011;6187;50.778;6.142;2022-11-20T01:46:26;7.20;;;6.70;;
12248;SDS011;6187;50.778;6.142;2022-11-20T01:48:57;6.60;;;6.10;;
12248;SDS011;6187;50.778;6.142;2022-11-20T01:51:28;7.27;;;6.77;;
12248;SDS011;6187;50.778;6.142;2022-11-20T01:53:58;7.23;;;6.73;;
12248;SDS011;6187;50.778;6.142;2022-11-20T01:56:28;6.67;;;6.17;;
12248;SDS011;6187;50.778;6.142;2022-11-20T01:58:59;6.97;;;6.47;;
12248;SDS011;6187;50.778;6.142;2022-11-20T02:01:28;6.93;;;6.43;;
12248;SDS011;6187;50.778;6.142;2022-11-20T02:03:58;6.40;;;6.00;;
12248;SDS011;6187;50.778;6.142;2022-11-20T02:06:27;6.47;;;6.07;;
12248;SDS011;6187;50.778;6.142;2022-11-20T02:08:57;5.87;;;5.47;;
12248;SDS011;6187;50.778;6.142;2022-11-20T02:11:26;5.80;;;5.40;;
12248;SDS011;6187;50.778;6.142;2022-11-20T02:13:54;4.83;;;4.53;;
12248;SDS011;6187;50.778;6.142;2022-11-20T02:16:23;5.40;;;5.00;;
12248;SDS011;6187;50.778;6.142;2022-11-20T02:18:53;7.83;;;7.33;;
12248;SDS011;6187;50.778;6.142;2022-11-20T02:21:29;7.47;;;6.97;;
12248;SDS011;6187;50.778;6.142;2022-11-20T02:24:03;9.10;;;8.40;;
12248;SDS011;6187;50.778;6.142;2022-11-20T02:26:33;8.27;;;7.67;;
12248;SDS011;6187;50.778;6.142;2022-11-20T02:29:03;7.30;;;6.70;;
12248;SDS011;6187;50.778;6.142;2022-11-20T02:31:36;7.70;;;7.20;;
12248;SDS011;6187;50.778;6.142;2022-11-20T02:34:05;7.33;;;6.83;;
12248;SDS011;6187;50.778;6.142;2022-11-20T02:36:34;6.80;;;6.30;;
12248;SDS011;6187;50.778;6.142;2022-11-20T02:39:04;6.77;;;6.27;;
12248;SDS011;6187;50.778;6.142;2022-11-20T02:41:34;6.40;;;5.97;;
12248;SDS011;6187;50.778;6.142;2022-11-20T02:44:03;6.23;;;5.83;;
12248;SDS011;6187;50.778;6.142;2022-11-20T02:46:32;6.20;;;5.80;;
12248;SDS011;6187;50.778;6.142;2022-11-20T02:49:01;6.73;;;6.23;;
12248;SDS011;6187;50.778;6.142;2022-11-20T02:51:30;7.10;;;6.60;;
12248;SDS011;6187;50.778;6.142;2022-11-20T02:53:59;7.07;;;6.57;;
12248;SDS011;6187;50.778;6.142;2022-11-20T02:56:29;6.33;;;5.93;;
12248;SDS011;6187;50.778;6.142;2022-11-20T02:58:57;6.97;;;6.47;;
12248;SDS011;6187;50.778;6.142;2022-11-20T03:01:26;7.30;;;6.80;;
12248;SDS011;6187;50.778;6.142;2022-11-20T03:03:54;8.30;;;7.70;;
12248;SDS011;6187;50.778;6.142;2022-11-20T03:06:23;8.10;;;7.50;;
12248;SDS011;6187;50.778;6.142;2022-11-20T03:08:52;7.97;;;7.37;;
12248;SDS011;6187;50.778;6.142;2022-11-20T03:11:20;7.87;;;7.27;;
12248;SDS011;6187;50.778;6.142;2022-11-20T03:13:50;8.30;;;7.70;;
12248;SDS011;6187;50.778;6.142;2022-11-20T03:16:19;7.57;;;7.03;;
12248;SDS011;6187;50.778;6.142;2022-11-20T03:18:48;7.23;;;6.70;;
12248;SDS011;6187;50.778;6.142;2022-11-20T03:21:17;7.40;;;6.90;;
12248;SDS011;6187;50.778;6.142;2022-11-20T03:23:46;8.40;;;7.80;;
12248;SDS011;6187;50.778;6.142;2022-11-20T03:26:16;8.03;;;7.43;;
12248;SDS011;6187;50.778;6.142;2022-11-20T03:28:46;9.40;;;8.70;;
12248;SDS011;6187;50.778;6.142;2022-11-20T03:31:17;8.83;;;8.13;;
12248;SDS011;6187;50.778;6.142;2022-11-20T03:33:46;7.93;;;7.33;;
12248;SDS011;6187;50.778;6.142;2022-11-20T03:36:15;8.60;;;8.00;;
12248;SDS011;6187;50.778;6.142;2022-11-20T03:38:44;9.20;;;8.50;;
12248;SDS011;6187;50.778;6.142;2022-11-20T03:41:13;8.27;;;7.67;;
12248;SDS011;6187;50.778;6.142;2022-11-20T03:43:46;7.23;;;6.63;;
12248;SDS011;6187;50.778;6.142;2022-11-20T03:46:14;7.43;;;6.90;;
12248;SDS011;6187;50.778;6.142;2022-11-20T03:48:45;8.03;;;7.43;;
12248;SDS011;6187;50.778;6.142;2022-11-20T03:51:18;7.30;;;6.80;;
12248;SDS011;6187;50.778;6.142;2022-11-20T03:53:47;7.40;;;6.90;;
12248;SDS011;6187;50.778;6.142;2022-11-20T03:56:17;8.03;;;7.43;;
12248;SDS011;6187;50.778;6.142;2022-11-20T03:58:46;8.30;;;7.70;;
12248;SDS011;6187;50.778;6.142;2022-11-20T04:01:16;8.90;;;8.20;;
12248;SDS011;6187;50.778;6.142;2022-11-20T04:03:46;8.10;;;7.50;;
12248;SDS011;6187;50.778;6.142;2022-11-20T04:06:16;7.13;;;6.63;;
12248;SDS011;6187;50.778;6.142;2022-11-20T04:08:45;6.47;;;5.97;;
12248;SDS011;6187;50.778;6.142;2022-11-20T04:11:20;6.97;;;6.47;;
12248;SDS011;6187;50.778;6.142;2022-11-20T04:13:49;6.87;;;6.37;;
12248;SDS011;6187;50.778;6.142;2022-11-20T04:16:18;8.10;;;7.50;;
12248;SDS011;6187;50.778;6.142;2022-11-20T04:18:50;8.17;;;7.57;;
12248;SDS011;6187;50.778;6.142;2022-11-20T04:21:19;7.67;;;7.07;;
12248;SDS011;6187;50.778;6.142;2022-11-20T04:23:48;7.57;;;6.97;;
12248;SDS011;6187;50.778;6.142;2022-11-20T04:26:17;7.87;;;7.27;;
12248;SDS011;6187;50.778;6.142;2022-11-20T04:28:45;7.80;;;7.20;;
12248;SDS011;6187;50.778;6.142;2022-11-20T04:31:14;7.17;;;6.67;;
12248;SDS011;6187;50.778;6.142;2022-11-20T04:33:43;7.43;;;6.93;;
12248;SDS011;6187;50.778;6.142;2022-11-20T04:36:14;8.10;;;7.47;;
12248;SDS011;6187;50.778;6.142;2022-11-20T04:38:43;9.67;;;8.87;;
12248;SDS011;6187;50.778;6.142;2022-11-20T04:41:13;8.53;;;7.93;;
12248;SDS011;6187;50.778;6.142;2022-11-20T04:43:45;10.07;;;9.27;;
12248;SDS011;6187;50.778;6.142;2022-11-20T04:46:15;9.27;;;8.57;;
12248;SDS011;6187;50.778;6.142;2022-11-20T04:48:44;10.73;;;9.90;;
12248;SDS011;6187;50.778;6.142;2022-11-20T04:51:14;10.53;;;9.73;;
12248;SDS011;6187;50.778;6.142;2022-11-20T04:53:43;11.20;;;10.30;;
12248;SDS011;6187;50.778;6.142;2022-11-20T04:56:12;10.27;;;9.47;;
12248;SDS011;6187;50.778;6.142;2022-11-20T04:58:40;12.23;;;11.13;;
12248;SDS011;6187;50.778;6.142;2022-11-20T05:01:10;11.97;;;10.97;;
12248;SDS011;6187;50.778;6.142;2022-11-20T05:03:39;12.07;;;11.07;;
12248;SDS011;6187;50.778;6.142;2022-11-20T05:06:08;12.37;;;11.23;;
12248;SDS011;6187;50.778;6.142;2022-11-20T05:08:39;11.50;;;10.50;;
12248;SDS011;6187;50.778;6.142;2022-11-20T05:11:08;11.80;;;10.80;;
12248;SDS011;6187;50.778;6.142;2022-11-20T05:13:37;11.47;;;10.47;;
12248;SDS011;6187;50.778;6.142;2022-11-20T05:16:07;11.77;;;10.77;;
12248;SDS011;6187;50.778;6.142;2022-11-20T05:18:36;11.87;;;10.60;;
12248;SDS011;6187;50.778;6.142;2022-11-20T05:21:05;10.97;;;10.07;;
12248;SDS011;6187;50.778;6.142;2022-11-20T05:23:35;10.73;;;9.93;;
12248;SDS011;6187;50.778;6.142;2022-11-20T05:26:05;12.00;;;11.00;;
12248;SDS011;6187;50.778;6.142;2022-11-20T05:28:34;12.23;;;11.13;;
12248;SDS011;6187;50.778;6.142;2022-11-20T05:31:06;11.70;;;10.60;;
12248;SDS011;6187;50.778;6.142;2022-11-20T05:33:34;10.67;;;9.80;;
12248;SDS011;6187;50.778;6.142;2022-11-20T05:36:03;11.33;;;10.33;;
12248;SDS011;6187;50.778;6.142;2022-11-20T05:38:32;11.60;;;10.70;;
12248;SDS011;6187;50.778;6.142;2022-11-20T05:41:06;11.10;;;10.20;;
12248;SDS011;6187;50.778;6.142;2022-11-20T05:43:35;10.80;;;9.90;;
12248;SDS011;6187;50.778;6.142;2022-11-20T05:46:04;11.77;;;10.77;;
12248;SDS011;6187;50.778;6.142;2022-11-20T05:48:34;10.40;;;9.60;;
12248;SDS011;6187;50.778;6.142;2022-11-20T05:51:03;11.10;;;10.20;;
12248;SDS011;6187;50.778;6.142;2022-11-20T05:53:32;10.57;;;9.77;;
12248;SDS011;6187;50.778;6.142;2022-11-20T05:56:02;11.10;;;10.20;;
12248;SDS011;6187;50.778;6.142;2022-11-20T05:58:32;10.97;;;10.07;;
12248;SDS011;6187;50.778;6.142;2022-11-20T06:01:04;11.57;;;10.67;;
12248;SDS011;6187;50.778;6.142;2022-11-20T06:03:33;11.50;;;10.50;;
12248;SDS011;6187;50.778;6.142;2022-11-20T06:06:02;10.13;;;9.33;;
12248;SDS011;6187;50.778;6.142;2022-11-20T06:08:31;10.80;;;9.80;;
12248;SDS011;6187;50.778;6.142;2022-11-20T06:11:02;10.93;;;10.03;;
12248;SDS011;6187;50.778;6.142;2022-11-20T06:13:32;10.70;;;9.80;;
12248;SDS011;6187;50.778;6.142;2022-11-20T06:16:07;11.37;;;10.47;;
12248;SDS011;6187;50.778;6.142;2022-11-20T06:18:36;9.93;;;9.13;;
12248;SDS011;6187;50.778;6.142;2022-11-20T06:21:05;10.77;;;9.87;;
12248;SDS011;6187;50.778;6.142;2022-11-20T06:23:34;10.17;;;9.37;;
12248;SDS011;6187;50.778;6.142;2022-11-20T06:26:03;9.70;;;8.90;;
12248;SDS011;6187;50.778;6.142;2022-11-20T06:28:34;9.00;;;8.30;;
12248;SDS011;6187;50.778;6.142;2022-11-20T06:31:03;8.97;;;8.27;;
12248;SDS011;6187;50.778;6.142;2022-11-20T06:33:32;10.10;;;9.33;;
12248;SDS011;6187;50.778;6.142;2022-11-20T06:36:01;8.87;;;8.17;;
12248;SDS011;6187;50.778;6.142;2022-11-20T06:38:36;8.17;;;7.50;;
12248;SDS011;6187;50.778;6.142;2022-11-20T06:41:05;7.93;;;7.33;;
12248;SDS011;6187;50.778;6.142;2022-11-20T06:43:35;8.80;;;8.10;;
12248;SDS011;6187;50.778;6.142;2022-11-20T06:46:04;8.77;;;8.13;;
12248;SDS011;6187;50.778;6.142;2022-11-20T06:48:33;9.00;;;8.30;;
12248;SDS011;6187;50.778;6.142;2022-11-20T06:51:02;9.03;;;8.33;;
12248;SDS011;6187;50.778;6.142;2022-11-20T06:53:31;8.40;;;7.80;;
12248;SDS011;6187;50.778;6.142;2022-11-20T06:55:59;9.13;;;8.33;;
12248;SDS011;6187;50.778;6.142;2022-11-20T06:58:28;9.10;;;8.30;;
12248;SDS011;6187;50.778;6.142;2022-11-20T07:00:59;8.70;;;8.00;;
12248;SDS011;6187;50.778;6.142;2022-11-20T07:03:27;7.93;;;7.33;;
12248;SDS011;6187;50.778;6.142;2022-11-20T07:05:56;7.70;;;7.10;;
12248;SDS011;6187;50.778;6.142;2022-11-20T07:08:25;7.47;;;6.87;;
12248;SDS011;6187;50.778;6.142;2022-11-20T07:10:56;8.70;;;8.03;;
12248;SDS011;6187;50.778;6.142;2022-11-20T07:13:25;9.17;;;8.47;;
12248;SDS011;6187;50.778;6.142;2022-11-20T07:15:54;8.70;;;8.00;;
12248;SDS011;6187;50.778;6.142;2022-11-20T07:18:24;8.20;;;7.57;;
12248;SDS011;6187;50.778;6.142;2022-11-20T07:20:52;8.57;;;7.87;;
12248;SDS011;6187;50.778;6.142;2022-11-20T07:23:21;9.10;;;8.40;;
12248;SDS011;6187;50.778;6.142;2022-11-20T07:25:50;8.97;;;8.27;;
12248;SDS011;6187;50.778;6.142;2022-11-20T07:28:18;8.03;;;7.43;;
12248;SDS011;6187;50.778;6.142;2022-11-20T07:30:49;8.07;;;7.47;;
12248;SDS011;6187;50.778;6.142;2022-11-20T07:33:18;7.77;;;7.20;;
12248;SDS011;6187;50.778;6.142;2022-11-20T07:35:47;8.10;;;7.50;;
12248;SDS011;6187;50.778;6.142;2022-11-20T07:38:16;7.67;;;7.07;;
12248;SDS011;6187;50.778;6.142;2022-11-20T07:40:45;8.60;;;8.00;;
12248;SDS011;6187;50.778;6.142;2022-11-20T07:43:13;8.63;;;8.03;;
12248;SDS011;6187;50.778;6.142;2022-11-20T07:45:42;9.07;;;8.40;;
12248;SDS011;6187;50.778;6.142;2022-11-20T07:48:11;7.80;;;7.30;;
12248;SDS011;6187;50.778;6.142;2022-11-20T07:50:39;8.30;;;7.70;;
12248;SDS011;6187;50.778;6.142;2022-11-20T07:53:09;8.70;;;8.00;;
12248;SDS011;6187;50.778;6.142;2022-11-20T07:55:39;8.50;;;7.90;;
12248;SDS011;6187;50.778;6.142;2022-11-20T07:58:07;7.17;;;6.67;;
12248;SDS011;6187;50.778;6.142;2022-11-20T08:00:36;7.53;;;7.03;;
12248;SDS011;6187;50.778;6.142;2022-11-20T08:03:05;7.33;;;6.83;;
12248;SDS011;6187;50.778;6.142;2022-11-20T08:05:34;7.10;;;6.60;;
12248;SDS011;6187;50.778;6.142;2022-11-20T08:08:03;7.93;;;7.33;;
12248;SDS011;6187;50.778;6.142;2022-11-20T08:10:34;7.80;;;7.23;;
12248;SDS011;6187;50.778;6.142;2022-11-20T08:13:03;7.63;;;7.03;;
12248;SDS011;6187;50.778;6.142;2022-11-20T08:15:49;7.60;;;7.00;;
12248;SDS011;6187;50.778;6.142;2022-11-20T08:18:18;6.50;;;6.10;;
12248;SDS011;6187;50.778;6.142;2022-11-20T08:21:02;8.53;;;7.90;;
12248;SDS011;6187;50.778;6.142;2022-11-20T08:23:31;8.27;;;7.67;;
12248;SDS011;6187;50.778;6.142;2022-11-20T08:26:01;7.83;;;7.23;;
12248;SDS011;6187;50.778;6.142;2022-11-20T08:28:30;7.13;;;6.63;;
12248;SDS011;6187;50.778;6.142;2022-11-20T08:30:59;7.40;;;6.90;;
12248;SDS011;6187;50.778;6.142;2022-11-20T08:33:28;7.77;;;7.17;;
12248;SDS011;6187;50.778;6.142;2022-11-20T08:35:59;7.67;;;7.07;;
12248;SDS011;6187;50.778;6.142;2022-11-20T08:38:28;8.33;;;7.67;;
12248;SDS011;6187;50.778;6.142;2022-11-20T08:40:57;8.30;;;7.63;;
12248;SDS011;6187;50.778;6.142;2022-11-20T08:43:41;7.40;;;6.83;;
12248;SDS011;6187;50.778;6.142;2022-11-20T08:46:10;8.20;;;7.60;;
12248;SDS011;6187;50.778;6.142;2022-11-20T08:48:38;8.03;;;7.43;;
12248;SDS011;6187;50.778;6.142;2022-11-20T08:51:07;9.20;;;8.40;;
12248;SDS011;6187;50.778;6.142;2022-11-20T08:53:35;9.23;;;8.43;;
12248;SDS011;6187;50.778;6.142;2022-11-20T08:56:04;10.47;;;9.57;;
12248;SDS011;6187;50.778;6.142;2022-11-20T08:58:33;9.53;;;8.73;;
12248;SDS011;6187;50.778;6.142;2022-11-20T09:01:23;8.17;;;7.47;;
12248;SDS011;6187;50.778;6.142;2022-11-20T09:03:52;9.30;;;8.50;;
12248;SDS011;6187;50.778;6.142;2022-11-20T09:06:20;9.13;;;8.33;;
12248;SDS011;6187;50.778;6.142;2022-11-20T09:08:51;8.20;;;7.50;;
12248;SDS011;6187;50.778;6.142;2022-11-20T09:11:20;10.57;;;9.67;;
12248;SDS011;6187;50.778;6.142;2022-11-20T09:13:48;8.80;;;8.00;;
12248;SDS011;6187;50.778;6.142;2022-11-20T09:16:17;9.60;;;8.77;;
12248;SDS011;6187;50.778;6.142;2022-11-20T09:18:49;10.17;;;9.27;;
12248;SDS011;6187;50.778;6.142;2022-11-20T09:21:38;10.93;;;9.93;;
12248;SDS011;6187;50.778;6.142;2022-11-20T09:24:07;10.63;;;9.63;;
12248;SDS011;6187;50.778;6.142;2022-11-20T09:26:35;10.20;;;9.30;;
12248;SDS011;6187;50.778;6.142;2022-11-20T09:29:04;11.50;;;10.40;;
12248;SDS011;6187;50.778;6.142;2022-11-20T09:31:32;10.30;;;9.30;;
12248;SDS011;6187;50.778;6.142;2022-11-20T09:34:02;10.10;;;9.20;;
12248;SDS011;6187;50.778;6.142;2022-11-20T09:36:31;8.63;;;7.83;;
12248;SDS011;6187;50.778;6.142;2022-11-20T09:39:00;9.60;;;8.80;;
12248;SDS011;6187;50.778;6.142;2022-11-20T09:41:32;9.20;;;8.50;;
12248;SDS011;6187;50.778;6.142;2022-11-20T09:44:05;8.93;;;8.13;;
12248;SDS011;6187;50.778;6.142;2022-11-20T09:46:40;8.80;;;8.00;;
12248;SDS011;6187;50.778;6.142;2022-11-20T09:49:19;7.40;;;6.80;;
12248;SDS011;6187;50.778;6.142;2022-11-20T09:51:58;10.50;;;9.60;;
12248;SDS011;6187;50.778;6.142;2022-11-20T09:54:27;9.10;;;8.30;;
12248;SDS011;6187;50.778;6.142;2022-11-20T09:56:58;10.20;;;9.30;;
12248;SDS011;6187;50.778;6.142;2022-11-20T09:59:35;9.27;;;8.47;;
12248;SDS011;6187;50.778;6.142;2022-11-20T10:02:11;10.00;;;9.10;;
12248;SDS011;6187;50.778;6.142;2022-11-20T10:04:43;9.47;;;8.67;;
12248;SDS011;6187;50.778;6.142;2022-11-20T10:07:13;10.23;;;9.33;;
12248;SDS011;6187;50.778;6.142;2022-11-20T10:09:58;9.97;;;9.07;;
12248;SDS011;6187;50.778;6.142;2022-11-20T10:12:29;10.47;;;9.57;;
12248;SDS011;6187;50.778;6.142;2022-11-20T10:17:52;9.60;;;8.80;;
12248;SDS011;6187;50.778;6.142;2022-11-20T10:20:26;8.43;;;7.73;;
12248;SDS011;6187;50.778;6.142;2022-11-20T10:23:02;10.10;;;9.20;;
12248;SDS011;6187;50.778;6.142;2022-11-20T10:25:33;9.73;;;8.93;;
12248;SDS011;6187;50.778;6.142;2022-11-20T10:28:12;8.20;;;7.60;;
12248;SDS011;6187;50.778;6.142;2022-11-20T10:30:43;8.93;;;8.23;;
12248;SDS011;6187;50.778;6.142;2022-11-20T10:33:13;9.10;;;8.40;;
12248;SDS011;6187;50.778;6.142;2022-11-20T10:35:45;8.70;;;8.00;;
12248;SDS011;6187;50.778;6.142;2022-11-20T10:38:18;8.77;;;8.07;;
12248;SDS011;6187;50.778;6.142;2022-11-20T10:40:49;8.90;;;8.20;;
12248;SDS011;6187;50.778;6.142;2022-11-20T10:43:20;8.73;;;8.03;;
12248;SDS011;6187;50.778;6.142;2022-11-20T10:45:51;7.97;;;7.37;;
12248;SDS011;6187;50.778;6.142;2022-11-20T10:48:22;8.03;;;7.33;;
12248;SDS011;6187;50.778;6.142;2022-11-20T10:51:03;7.43;;;6.83;;
12248;SDS011;6187;50.778;6.142;2022-11-20T10:53:40;9.00;;;8.30;;
12248;SDS011;6187;50.778;6.142;2022-11-20T10:56:12;7.77;;;7.17;;
12248;SDS011;6187;50.778;6.142;2022-11-20T10:58:45;8.20;;;7.50;;
12248;SDS011;6187;50.778;6.142;2022-11-20T11:01:16;7.83;;;7.23;;
12248;SDS011;6187;50.778;6.142;2022-11-20T11:03:45;7.10;;;6.57;;
12248;SDS011;6187;50.778;6.142;2022-11-20T11:06:17;7.00;;;6.47;;
12248;SDS011;6187;50.778;6.142;2022-11-20T11:08:47;7.03;;;6.53;;
12248;SDS011;6187;50.778;6.142;2022-11-20T11:11:19;7.60;;;7.03;;
12248;SDS011;6187;50.778;6.142;2022-11-20T11:13:49;7.40;;;6.80;;
12248;SDS011;6187;50.778;6.142;2022-11-20T11:16:21;7.07;;;6.47;;
12248;SDS011;6187;50.778;6.142;2022-11-20T11:18:50;6.60;;;6.10;;
12248;SDS011;6187;50.778;6.142;2022-11-20T11:21:24;6.73;;;6.20;;
12248;SDS011;6187;50.778;6.142;2022-11-20T11:23:59;7.00;;;6.40;;
12248;SDS011;6187;50.778;6.142;2022-11-20T11:26:52;6.30;;;5.80;;
12248;SDS011;6187;50.778;6.142;2022-11-20T11:29:21;6.30;;;5.80;;
12248;SDS011;6187;50.778;6.142;2022-11-20T11:31:50;5.60;;;5.20;;
12248;SDS011;6187;50.778;6.142;2022-11-20T11:34:19;5.83;;;5.37;;
12248;SDS011;6187;50.778;6.142;2022-11-20T11:36:52;5.90;;;5.40;;
12248;SDS011;6187;50.778;6.142;2022-11-20T11:39:22;5.80;;;5.30;;
12248;SDS011;6187;50.778;6.142;2022-11-20T11:41:52;5.10;;;4.70;;
12248;SDS011;6187;50.778;6.142;2022-11-20T11:44:21;4.87;;;4.47;;
12248;SDS011;6187;50.778;6.142;2022-11-20T11:47:10;4.67;;;4.37;;
12248;SDS011;6187;50.778;6.142;2022-11-20T11:49:39;4.80;;;4.40;;
12248;SDS011;6187;50.778;6.142;2022-11-20T11:52:10;5.13;;;4.70;;
12248;SDS011;6187;50.778;6.142;2022-11-20T11:54:42;4.17;;;3.87;;
12248;SDS011;6187;50.778;6.142;2022-11-20T11:57:13;4.43;;;4.13;;
12248;SDS011;6187;50.778;6.142;2022-11-20T11:59:49;4.10;;;3.80;;
12248;SDS011;6187;50.778;6.142;2022-11-20T12:02:24;3.90;;;3.60;;
12248;SDS011;6187;50.778;6.142;2022-11-20T12:04:57;4.20;;;3.90;;
12248;SDS011;6187;50.778;6.142;2022-11-20T12:07:31;3.83;;;3.53;;
12248;SDS011;6187;50.778;6.142;2022-11-20T12:10:20;3.60;;;3.40;;
12248;SDS011;6187;50.778;6.142;2022-11-20T12:12:51;3.27;;;3.07;;
12248;SDS011;6187;50.778;6.142;2022-11-20T12:15:23;3.40;;;3.20;;
12248;SDS011;6187;50.778;6.142;2022-11-20T12:17:53;2.97;;;2.73;;
12248;SDS011;6187;50.778;6.142;2022-11-20T12:20:22;2.70;;;2.50;;
12248;SDS011;6187;50.778;6.142;2022-11-20T12:22:55;2.90;;;2.70;;
12248;SDS011;6187;50.778;6.142;2022-11-20T12:25:24;2.70;;;2.50;;
12248;SDS011;6187;50.778;6.142;2022-11-20T12:28:11;2.33;;;2.13;;
12248;SDS011;6187;50.778;6.142;2022-11-20T12:30:42;2.07;;;1.97;;
12248;SDS011;6187;50.778;6.142;2022-11-20T12:33:18;3.00;;;2.03;;
12248;SDS011;6187;50.778;6.142;2022-11-20T12:35:54;2.00;;;1.90;;
12248;SDS011;6187;50.778;6.142;2022-11-20T12:38:31;2.37;;;2.17;;
12248;SDS011;6187;50.778;6.142;2022-11-20T12:41:03;2.03;;;1.93;;
12248;SDS011;6187;50.778;6.142;2022-11-20T12:43:35;2.33;;;2.00;;
12248;SDS011;6187;50.778;6.142;2022-11-20T12:46:25;2.03;;;1.80;;
12248;SDS011;6187;50.778;6.142;2022-11-20T12:49:01;2.70;;;1.70;;
12248;SDS011;6187;50.778;6.142;2022-11-20T12:51:39;1.60;;;1.50;;
12248;SDS011;6187;50.778;6.142;2022-11-20T12:57:00;1.67;;;1.50;;
12248;SDS011;6187;50.778;6.142;2022-11-20T12:59:33;1.57;;;1.47;;
12248;SDS011;6187;50.778;6.142;2022-11-20T13:02:13;1.50;;;1.40;;
12248;SDS011;6187;50.778;6.142;2022-11-20T13:04:54;1.63;;;1.33;;
12248;SDS011;6187;50.778;6.142;2022-11-20T13:07:27;1.40;;;1.20;;
12248;SDS011;6187;50.778;6.142;2022-11-20T13:09:56;1.33;;;1.23;;
12248;SDS011;6187;50.778;6.142;2022-11-20T13:12:29;1.30;;;1.20;;
12248;SDS011;6187;50.778;6.142;2022-11-20T13:15:02;1.20;;;1.10;;
12248;SDS011;6187;50.778;6.142;2022-11-20T13:17:34;1.50;;;1.40;;
12248;SDS011;6187;50.778;6.142;2022-11-20T13:20:05;1.60;;;1.07;;
12248;SDS011;6187;50.778;6.142;2022-11-20T13:22:42;1.43;;;1.10;;
12248;SDS011;6187;50.778;6.142;2022-11-20T13:25:21;1.27;;;1.17;;
12248;SDS011;6187;50.778;6.142;2022-11-20T13:27:51;1.07;;;1.00;;
12248;SDS011;6187;50.778;6.142;2022-11-20T13:30:21;1.07;;;0.97;;
12248;SDS011;6187;50.778;6.142;2022-11-20T13:32:53;1.50;;;1.07;;
12248;SDS011;6187;50.778;6.142;2022-11-20T13:35:23;0.80;;;0.80;;
12248;SDS011;6187;50.778;6.142;2022-11-20T13:37:59;1.07;;;1.00;;
12248;SDS011;6187;50.778;6.142;2022-11-20T13:40:28;1.20;;;1.00;;
12248;SDS011;6187;50.778;6.142;2022-11-20T13:43:17;1.00;;;1.00;;
12248;SDS011;6187;50.778;6.142;2022-11-20T13:45:54;1.37;;;1.20;;
12248;SDS011;6187;50.778;6.142;2022-11-20T13:48:24;0.90;;;0.80;;
12248;SDS011;6187;50.778;6.142;2022-11-20T13:50:55;0.80;;;0.70;;
12248;SDS011;6187;50.778;6.142;2022-11-20T13:53:30;1.43;;;1.10;;
12248;SDS011;6187;50.778;6.142;2022-11-20T13:56:03;0.70;;;0.70;;
12248;SDS011;6187;50.778;6.142;2022-11-20T13:58:40;1.20;;;0.90;;
12248;SDS011;6187;50.778;6.142;2022-11-20T14:01:15;1.03;;;0.90;;
12248;SDS011;6187;50.778;6.142;2022-11-20T14:03:45;1.53;;;0.90;;
12248;SDS011;6187;50.778;6.142;2022-11-20T14:06:33;0.90;;;0.80;;
12248;SDS011;6187;50.778;6.142;2022-11-20T14:09:02;1.43;;;0.80;;
12248;SDS011;6187;50.778;6.142;2022-11-20T14:11:31;0.80;;;0.80;;
12248;SDS011;6187;50.778;6.142;2022-11-20T14:14:01;1.00;;;0.90;;
12248;SDS011;6187;50.778;6.142;2022-11-20T14:16:32;1.73;;;1.20;;
12248;SDS011;6187;50.778;6.142;2022-11-20T14:19:19;1.27;;;0.90;;
12248;SDS011;6187;50.778;6.142;2022-11-20T14:21:51;0.80;;;0.80;;
12248;SDS011;6187;50.778;6.142;2022-11-20T14:24:21;1.93;;;0.90;;
12248;SDS011;6187;50.778;6.142;2022-11-20T14:26:50;1.13;;;0.83;;
12248;SDS011;6187;50.778;6.142;2022-11-20T14:29:21;0.80;;;0.80;;
12248;SDS011;6187;50.778;6.142;2022-11-20T14:31:50;1.40;;;0.73;;
12248;SDS011;6187;50.778;6.142;2022-11-20T14:34:21;0.90;;;0.77;;
12248;SDS011;6187;50.778;6.142;2022-11-20T14:36:52;0.80;;;0.70;;
12248;SDS011;6187;50.778;6.142;2022-11-20T14:39:22;0.80;;;0.80;;
12248;SDS011;6187;50.778;6.142;2022-11-20T14:41:53;0.97;;;0.90;;
12248;SDS011;6187;50.778;6.142;2022-11-20T14:44:25;0.80;;;0.80;;
12248;SDS011;6187;50.778;6.142;2022-11-20T14:46:54;1.40;;;1.17;;
12248;SDS011;6187;50.778;6.142;2022-11-20T14:49:24;0.80;;;0.80;;
12248;SDS011;6187;50.778;6.142;2022-11-20T14:51:58;1.30;;;1.20;;
12248;SDS011;6187;50.778;6.142;2022-11-20T14:54:27;1.27;;;1.07;;
12248;SDS011;6187;50.778;6.142;2022-11-20T14:56:57;0.90;;;0.90;;
12248;SDS011;6187;50.778;6.142;2022-11-20T14:59:28;0.80;;;0.80;;
12248;SDS011;6187;50.778;6.142;2022-11-20T15:01:58;1.20;;;1.10;;
12248;SDS011;6187;50.778;6.142;2022-11-20T15:04:27;1.60;;;1.10;;
12248;SDS011;6187;50.778;6.142;2022-11-20T15:06:57;1.00;;;0.90;;
12248;SDS011;6187;50.778;6.142;2022-11-20T15:09:26;1.70;;;1.40;;
12248;SDS011;6187;50.778;6.142;2022-11-20T15:11:55;1.17;;;1.07;;
12248;SDS011;6187;50.778;6.142;2022-11-20T15:14:24;1.23;;;1.13;;
12248;SDS011;6187;50.778;6.142;2022-11-20T15:16:54;1.30;;;1.20;;
12248;SDS011;6187;50.778;6.142;2022-11-20T15:19:24;1.30;;;1.10;;
12248;SDS011;6187;50.778;6.142;2022-11-20T15:21:53;1.70;;;1.20;;
12248;SDS011;6187;50.778;6.142;2022-11-20T15:24:21;1.00;;;0.90;;
12248;SDS011;6187;50.778;6.142;2022-11-20T15:26:51;0.80;;;0.80;;